sensor_id;sensor_type;location;lat;lon;timestamp;P1;durP1;ratioP1;P2;durP2;ratioP2
8159;SDS011;27404;52.398;9.646;2022-09-13T00:01:42;5.57;;;2.97;;
8159;SDS011;27404;52.398;9.646;2022-09-13T00:04:07;3.30;;;2.80;;
8159;SDS011;27404;52.398;9.646;2022-09-13T00:06:33;4.23;;;2.90;;
8159;SDS011;27404;52.398;9.646;2022-09-13T00:08:58;4.70;;;3.20;;
8159;SDS011;27404;52.398;9.646;2022-09-13T00:11:26;4.70;;;3.30;;
8159;SDS011;27404;52.398;9.646;2022-09-13T00:13:52;3.67;;;2.83;;
8159;SDS011;27404;52.398;9.646;2022-09-13T00:16:19;6.93;;;3.10;;
8159;SDS011;27404;52.398;9.646;2022-09-13T00:18:46;6.37;;;3.30;;
8159;SDS011;27404;52.398;9.646;2022-09-13T00:21:13;5.97;;;3.77;;
8159;SDS011;27404;52.398;9.646;2022-09-13T00:23:44;4.23;;;2.90;;
8159;SDS011;27404;52.398;9.646;2022-09-13T00:26:12;4.83;;;3.60;;
8159;SDS011;27404;52.398;9.646;2022-09-13T00:28:39;4.63;;;3.30;;
8159;SDS011;27404;52.398;9.646;2022-09-13T00:31:06;5.50;;;3.23;;
8159;SDS011;27404;52.398;9.646;2022-09-13T00:33:33;5.93;;;3.27;;
8159;SDS011;27404;52.398;9.646;2022-09-13T00:36:06;5.27;;;3.33;;
8159;SDS011;27404;52.398;9.646;2022-09-13T00:38:36;4.63;;;3.67;;
8159;SDS011;27404;52.398;9.646;2022-09-13T00:41:03;4.37;;;3.37;;
8159;SDS011;27404;52.398;9.646;2022-09-13T00:43:40;4.93;;;3.50;;
8159;SDS011;27404;52.398;9.646;2022-09-13T00:46:07;4.70;;;3.37;;
8159;SDS011;27404;52.398;9.646;2022-09-13T00:48:35;6.23;;;3.93;;
8159;SDS011;27404;52.398;9.646;2022-09-13T00:51:01;5.80;;;4.13;;
8159;SDS011;27404;52.398;9.646;2022-09-13T00:53:33;5.60;;;3.73;;
8159;SDS011;27404;52.398;9.646;2022-09-13T00:58:59;6.27;;;3.70;;
8159;SDS011;27404;52.398;9.646;2022-09-13T01:01:34;6.80;;;3.83;;
8159;SDS011;27404;52.398;9.646;2022-09-13T01:04:06;6.07;;;3.70;;
8159;SDS011;27404;52.398;9.646;2022-09-13T01:06:32;5.30;;;3.63;;
8159;SDS011;27404;52.398;9.646;2022-09-13T01:09:01;4.57;;;3.20;;
8159;SDS011;27404;52.398;9.646;2022-09-13T01:11:29;8.33;;;3.70;;
8159;SDS011;27404;52.398;9.646;2022-09-13T01:13:56;6.20;;;3.53;;
8159;SDS011;27404;52.398;9.646;2022-09-13T01:16:22;5.27;;;3.77;;
8159;SDS011;27404;52.398;9.646;2022-09-13T01:18:48;5.03;;;3.90;;
8159;SDS011;27404;52.398;9.646;2022-09-13T01:38:24;6.20;;;3.97;;
8159;SDS011;27404;52.398;9.646;2022-09-13T01:47:29;4.47;;;3.37;;
8159;SDS011;27404;52.398;9.646;2022-09-13T01:50:05;4.57;;;3.73;;
8159;SDS011;27404;52.398;9.646;2022-09-13T02:00:54;10.27;;;3.70;;
8159;SDS011;27404;52.398;9.646;2022-09-13T02:06:35;5.30;;;3.67;;
8159;SDS011;27404;52.398;9.646;2022-09-13T02:09:10;6.17;;;3.93;;
8159;SDS011;27404;52.398;9.646;2022-09-13T02:11:40;5.50;;;3.63;;
8159;SDS011;27404;52.398;9.646;2022-09-13T02:14:13;6.67;;;3.80;;
8159;SDS011;27404;52.398;9.646;2022-09-13T02:16:51;6.60;;;3.60;;
8159;SDS011;27404;52.398;9.646;2022-09-13T02:19:33;6.07;;;4.10;;
8159;SDS011;27404;52.398;9.646;2022-09-13T02:22:05;6.10;;;3.70;;
8159;SDS011;27404;52.398;9.646;2022-09-13T02:24:33;5.47;;;4.10;;
8159;SDS011;27404;52.398;9.646;2022-09-13T02:27:14;5.00;;;3.70;;
8159;SDS011;27404;52.398;9.646;2022-09-13T02:29:44;5.93;;;3.80;;
8159;SDS011;27404;52.398;9.646;2022-09-13T02:32:16;6.10;;;3.27;;
8159;SDS011;27404;52.398;9.646;2022-09-13T02:35:23;4.67;;;3.80;;
8159;SDS011;27404;52.398;9.646;2022-09-13T02:37:43;5.53;;;3.90;;
8159;SDS011;27404;52.398;9.646;2022-09-13T02:40:17;7.33;;;4.10;;
8159;SDS011;27404;52.398;9.646;2022-09-13T02:42:52;7.63;;;4.63;;
8159;SDS011;27404;52.398;9.646;2022-09-13T02:45:25;4.47;;;3.80;;
8159;SDS011;27404;52.398;9.646;2022-09-13T02:47:57;5.73;;;4.17;;
8159;SDS011;27404;52.398;9.646;2022-09-13T02:50:34;6.93;;;4.47;;
8159;SDS011;27404;52.398;9.646;2022-09-13T02:53:30;6.67;;;4.20;;
8159;SDS011;27404;52.398;9.646;2022-09-13T02:56:03;9.37;;;4.83;;
8159;SDS011;27404;52.398;9.646;2022-09-13T03:01:16;6.13;;;4.43;;
8159;SDS011;27404;52.398;9.646;2022-09-13T03:03:42;7.53;;;5.00;;
8159;SDS011;27404;52.398;9.646;2022-09-13T03:06:08;6.27;;;4.77;;
8159;SDS011;27404;52.398;9.646;2022-09-13T03:08:34;6.40;;;4.70;;
8159;SDS011;27404;52.398;9.646;2022-09-13T03:27:21;7.37;;;4.77;;
8159;SDS011;27404;52.398;9.646;2022-09-13T03:30:07;7.63;;;5.10;;
8159;SDS011;27404;52.398;9.646;2022-09-13T03:32:41;9.83;;;5.93;;
8159;SDS011;27404;52.398;9.646;2022-09-13T03:45:30;7.93;;;5.50;;
8159;SDS011;27404;52.398;9.646;2022-09-13T03:47:59;6.13;;;5.43;;
8159;SDS011;27404;52.398;9.646;2022-09-13T03:50:28;7.03;;;5.40;;
8159;SDS011;27404;52.398;9.646;2022-09-13T03:52:56;6.63;;;5.50;;
8159;SDS011;27404;52.398;9.646;2022-09-13T03:55:27;7.10;;;5.20;;
8159;SDS011;27404;52.398;9.646;2022-09-13T03:57:54;7.53;;;5.03;;
8159;SDS011;27404;52.398;9.646;2022-09-13T04:00:20;7.77;;;5.33;;
8159;SDS011;27404;52.398;9.646;2022-09-13T04:02:45;7.73;;;5.90;;
8159;SDS011;27404;52.398;9.646;2022-09-13T04:05:11;7.10;;;5.57;;
8159;SDS011;27404;52.398;9.646;2022-09-13T04:07:36;7.97;;;5.80;;
8159;SDS011;27404;52.398;9.646;2022-09-13T04:10:02;7.23;;;5.80;;
8159;SDS011;27404;52.398;9.646;2022-09-13T04:12:27;7.93;;;5.70;;
8159;SDS011;27404;52.398;9.646;2022-09-13T04:14:55;6.63;;;5.17;;
8159;SDS011;27404;52.398;9.646;2022-09-13T04:17:20;6.30;;;5.10;;
8159;SDS011;27404;52.398;9.646;2022-09-13T04:19:46;7.90;;;5.40;;
8159;SDS011;27404;52.398;9.646;2022-09-13T04:22:11;7.23;;;5.17;;
8159;SDS011;27404;52.398;9.646;2022-09-13T04:24:37;8.00;;;5.03;;
8159;SDS011;27404;52.398;9.646;2022-09-13T04:27:03;9.33;;;5.40;;
8159;SDS011;27404;52.398;9.646;2022-09-13T04:29:30;7.80;;;5.77;;
8159;SDS011;27404;52.398;9.646;2022-09-13T04:31:57;6.83;;;5.43;;
8159;SDS011;27404;52.398;9.646;2022-09-13T04:34:23;9.17;;;5.67;;
8159;SDS011;27404;52.398;9.646;2022-09-13T04:36:49;6.80;;;5.57;;
8159;SDS011;27404;52.398;9.646;2022-09-13T04:39:16;7.83;;;5.43;;
8159;SDS011;27404;52.398;9.646;2022-09-13T04:41:44;8.83;;;5.70;;
8159;SDS011;27404;52.398;9.646;2022-09-13T04:44:13;8.23;;;5.53;;
8159;SDS011;27404;52.398;9.646;2022-09-13T04:46:40;7.13;;;5.03;;
8159;SDS011;27404;52.398;9.646;2022-09-13T04:49:08;7.77;;;5.43;;
8159;SDS011;27404;52.398;9.646;2022-09-13T04:51:34;8.33;;;5.60;;
8159;SDS011;27404;52.398;9.646;2022-09-13T04:53:59;6.57;;;5.73;;
8159;SDS011;27404;52.398;9.646;2022-09-13T04:56:25;6.77;;;5.33;;
8159;SDS011;27404;52.398;9.646;2022-09-13T04:58:51;7.90;;;5.87;;
8159;SDS011;27404;52.398;9.646;2022-09-13T05:01:19;7.07;;;5.33;;
8159;SDS011;27404;52.398;9.646;2022-09-13T05:03:45;6.63;;;5.00;;
8159;SDS011;27404;52.398;9.646;2022-09-13T05:06:12;6.77;;;4.87;;
8159;SDS011;27404;52.398;9.646;2022-09-13T05:08:39;7.70;;;5.50;;
8159;SDS011;27404;52.398;9.646;2022-09-13T05:11:05;7.63;;;5.67;;
8159;SDS011;27404;52.398;9.646;2022-09-13T05:13:31;8.23;;;5.60;;
8159;SDS011;27404;52.398;9.646;2022-09-13T05:15:58;6.07;;;5.27;;
8159;SDS011;27404;52.398;9.646;2022-09-13T05:18:29;8.73;;;5.57;;
8159;SDS011;27404;52.398;9.646;2022-09-13T05:20:57;6.93;;;5.53;;
8159;SDS011;27404;52.398;9.646;2022-09-13T05:23:24;8.13;;;5.77;;
8159;SDS011;27404;52.398;9.646;2022-09-13T05:25:52;6.50;;;5.07;;
8159;SDS011;27404;52.398;9.646;2022-09-13T05:28:21;7.67;;;5.70;;
8159;SDS011;27404;52.398;9.646;2022-09-13T05:30:54;7.47;;;5.40;;
8159;SDS011;27404;52.398;9.646;2022-09-13T05:33:57;7.03;;;5.40;;
8159;SDS011;27404;52.398;9.646;2022-09-13T05:36:25;8.67;;;6.00;;
8159;SDS011;27404;52.398;9.646;2022-09-13T05:38:52;7.70;;;6.30;;
8159;SDS011;27404;52.398;9.646;2022-09-13T05:41:18;7.60;;;5.97;;
8159;SDS011;27404;52.398;9.646;2022-09-13T05:43:44;8.17;;;5.93;;
8159;SDS011;27404;52.398;9.646;2022-09-13T05:46:10;7.53;;;5.37;;
8159;SDS011;27404;52.398;9.646;2022-09-13T05:48:37;9.00;;;6.07;;
8159;SDS011;27404;52.398;9.646;2022-09-13T05:51:10;7.37;;;5.80;;
8159;SDS011;27404;52.398;9.646;2022-09-13T05:53:41;6.60;;;5.30;;
8159;SDS011;27404;52.398;9.646;2022-09-13T05:56:09;8.97;;;5.80;;
8159;SDS011;27404;52.398;9.646;2022-09-13T05:58:40;8.07;;;5.87;;
8159;SDS011;27404;52.398;9.646;2022-09-13T06:01:07;9.67;;;6.43;;
8159;SDS011;27404;52.398;9.646;2022-09-13T06:03:33;7.83;;;6.50;;
8159;SDS011;27404;52.398;9.646;2022-09-13T06:06:00;9.13;;;7.03;;
8159;SDS011;27404;52.398;9.646;2022-09-13T06:08:27;9.67;;;6.80;;
8159;SDS011;27404;52.398;9.646;2022-09-13T06:10:57;7.47;;;5.70;;
8159;SDS011;27404;52.398;9.646;2022-09-13T06:13:23;7.30;;;5.63;;
8159;SDS011;27404;52.398;9.646;2022-09-13T06:15:50;7.77;;;6.03;;
8159;SDS011;27404;52.398;9.646;2022-09-13T06:18:16;8.90;;;5.20;;
8159;SDS011;27404;52.398;9.646;2022-09-13T06:20:42;6.83;;;5.40;;
8159;SDS011;27404;52.398;9.646;2022-09-13T06:23:07;6.30;;;5.20;;
8159;SDS011;27404;52.398;9.646;2022-09-13T06:25:33;6.50;;;4.90;;
8159;SDS011;27404;52.398;9.646;2022-09-13T06:27:58;7.93;;;5.13;;
8159;SDS011;27404;52.398;9.646;2022-09-13T06:30:24;6.73;;;5.50;;
8159;SDS011;27404;52.398;9.646;2022-09-13T06:32:49;7.17;;;5.13;;
8159;SDS011;27404;52.398;9.646;2022-09-13T06:35:15;5.83;;;5.10;;
8159;SDS011;27404;52.398;9.646;2022-09-13T06:37:40;6.37;;;4.83;;
8159;SDS011;27404;52.398;9.646;2022-09-13T06:40:06;6.33;;;5.10;;
8159;SDS011;27404;52.398;9.646;2022-09-13T06:42:33;5.67;;;4.73;;
8159;SDS011;27404;52.398;9.646;2022-09-13T06:44:59;5.03;;;4.20;;
8159;SDS011;27404;52.398;9.646;2022-09-13T06:47:25;6.40;;;5.17;;
8159;SDS011;27404;52.398;9.646;2022-09-13T06:49:50;7.80;;;4.60;;
8159;SDS011;27404;52.398;9.646;2022-09-13T06:52:15;7.03;;;5.53;;
8159;SDS011;27404;52.398;9.646;2022-09-13T06:54:41;6.70;;;5.27;;
8159;SDS011;27404;52.398;9.646;2022-09-13T06:57:07;7.27;;;5.73;;
8159;SDS011;27404;52.398;9.646;2022-09-13T06:59:33;8.40;;;6.00;;
8159;SDS011;27404;52.398;9.646;2022-09-13T07:01:59;6.03;;;5.33;;
8159;SDS011;27404;52.398;9.646;2022-09-13T07:04:25;9.37;;;6.33;;
8159;SDS011;27404;52.398;9.646;2022-09-13T07:06:55;9.17;;;6.70;;
8159;SDS011;27404;52.398;9.646;2022-09-13T07:09:22;7.47;;;5.60;;
8159;SDS011;27404;52.398;9.646;2022-09-13T07:11:48;7.17;;;5.27;;
8159;SDS011;27404;52.398;9.646;2022-09-13T07:14:19;6.83;;;5.57;;
8159;SDS011;27404;52.398;9.646;2022-09-13T07:16:47;7.00;;;5.33;;
8159;SDS011;27404;52.398;9.646;2022-09-13T07:19:14;6.47;;;4.87;;
8159;SDS011;27404;52.398;9.646;2022-09-13T07:21:41;7.20;;;4.97;;
8159;SDS011;27404;52.398;9.646;2022-09-13T07:24:07;7.83;;;5.67;;
8159;SDS011;27404;52.398;9.646;2022-09-13T07:26:34;6.63;;;5.30;;
8159;SDS011;27404;52.398;9.646;2022-09-13T07:29:00;6.80;;;4.70;;
8159;SDS011;27404;52.398;9.646;2022-09-13T07:31:32;6.57;;;4.87;;
8159;SDS011;27404;52.398;9.646;2022-09-13T07:34:03;7.20;;;5.37;;
8159;SDS011;27404;52.398;9.646;2022-09-13T07:36:30;6.80;;;5.23;;
8159;SDS011;27404;52.398;9.646;2022-09-13T07:38:57;6.97;;;5.43;;
8159;SDS011;27404;52.398;9.646;2022-09-13T07:41:24;7.47;;;5.00;;
8159;SDS011;27404;52.398;9.646;2022-09-13T07:43:50;5.53;;;4.43;;
8159;SDS011;27404;52.398;9.646;2022-09-13T07:46:17;11.37;;;5.53;;
8159;SDS011;27404;52.398;9.646;2022-09-13T07:48:44;7.43;;;5.13;;
8159;SDS011;27404;52.398;9.646;2022-09-13T07:51:11;9.47;;;5.30;;
8159;SDS011;27404;52.398;9.646;2022-09-13T07:53:39;5.37;;;4.57;;
8159;SDS011;27404;52.398;9.646;2022-09-13T07:56:13;6.63;;;4.80;;
8159;SDS011;27404;52.398;9.646;2022-09-13T07:58:40;8.33;;;4.80;;
8159;SDS011;27404;52.398;9.646;2022-09-13T08:03:57;6.77;;;4.67;;
8159;SDS011;27404;52.398;9.646;2022-09-13T08:06:29;6.40;;;4.70;;
8159;SDS011;27404;52.398;9.646;2022-09-13T08:08:56;7.07;;;4.90;;
8159;SDS011;27404;52.398;9.646;2022-09-13T08:11:40;7.47;;;4.43;;
8159;SDS011;27404;52.398;9.646;2022-09-13T08:14:09;8.87;;;5.10;;
8159;SDS011;27404;52.398;9.646;2022-09-13T08:16:36;9.17;;;5.60;;
8159;SDS011;27404;52.398;9.646;2022-09-13T08:19:03;7.70;;;5.30;;
8159;SDS011;27404;52.398;9.646;2022-09-13T08:21:31;10.43;;;6.57;;
8159;SDS011;27404;52.398;9.646;2022-09-13T08:23:59;7.87;;;5.93;;
8159;SDS011;27404;52.398;9.646;2022-09-13T08:26:28;8.73;;;5.97;;
8159;SDS011;27404;52.398;9.646;2022-09-13T08:28:55;9.53;;;6.37;;
8159;SDS011;27404;52.398;9.646;2022-09-13T08:31:22;11.37;;;6.30;;
8159;SDS011;27404;52.398;9.646;2022-09-13T08:33:48;8.03;;;6.00;;
8159;SDS011;27404;52.398;9.646;2022-09-13T08:36:14;7.37;;;6.30;;
8159;SDS011;27404;52.398;9.646;2022-09-13T08:38:45;9.43;;;6.57;;
8159;SDS011;27404;52.398;9.646;2022-09-13T08:43:54;13.27;;;6.60;;
8159;SDS011;27404;52.398;9.646;2022-09-13T08:46:36;8.20;;;6.13;;
8159;SDS011;27404;52.398;9.646;2022-09-13T08:49:23;13.60;;;6.07;;
8159;SDS011;27404;52.398;9.646;2022-09-13T08:51:57;9.40;;;7.20;;
8159;SDS011;27404;52.398;9.646;2022-09-13T08:54:27;10.93;;;6.50;;
8159;SDS011;27404;52.398;9.646;2022-09-13T09:02:26;9.80;;;6.20;;
8159;SDS011;27404;52.398;9.646;2022-09-13T09:04:54;9.77;;;6.93;;
8159;SDS011;27404;52.398;9.646;2022-09-13T09:07:35;8.73;;;6.90;;
8159;SDS011;27404;52.398;9.646;2022-09-13T09:10:15;8.60;;;6.73;;
8159;SDS011;27404;52.398;9.646;2022-09-13T09:12:42;10.83;;;7.43;;
8159;SDS011;27404;52.398;9.646;2022-09-13T09:17:52;7.90;;;6.23;;
8159;SDS011;27404;52.398;9.646;2022-09-13T09:23:17;10.63;;;7.27;;
8159;SDS011;27404;52.398;9.646;2022-09-13T09:28:54;10.53;;;7.77;;
8159;SDS011;27404;52.398;9.646;2022-09-13T09:34:31;9.57;;;7.83;;
8159;SDS011;27404;52.398;9.646;2022-09-13T09:37:33;11.80;;;8.10;;
8159;SDS011;27404;52.398;9.646;2022-09-13T09:40:01;12.43;;;8.47;;
8159;SDS011;27404;52.398;9.646;2022-09-13T09:42:34;14.57;;;9.87;;
8159;SDS011;27404;52.398;9.646;2022-09-13T09:45:27;14.80;;;9.37;;
8159;SDS011;27404;52.398;9.646;2022-09-13T09:47:52;13.67;;;9.77;;
8159;SDS011;27404;52.398;9.646;2022-09-13T09:50:23;14.27;;;9.20;;
8159;SDS011;27404;52.398;9.646;2022-09-13T09:52:57;11.43;;;8.43;;
8159;SDS011;27404;52.398;9.646;2022-09-13T09:55:31;10.60;;;8.33;;
8159;SDS011;27404;52.398;9.646;2022-09-13T09:58:18;14.17;;;8.43;;
8159;SDS011;27404;52.398;9.646;2022-09-13T10:01:00;12.90;;;8.23;;
8159;SDS011;27404;52.398;9.646;2022-09-13T10:03:29;11.87;;;8.23;;
8159;SDS011;27404;52.398;9.646;2022-09-13T10:06:07;12.17;;;8.63;;
8159;SDS011;27404;52.398;9.646;2022-09-13T10:08:36;11.70;;;8.13;;
8159;SDS011;27404;52.398;9.646;2022-09-13T10:11:04;16.47;;;8.57;;
8159;SDS011;27404;52.398;9.646;2022-09-13T10:13:30;12.93;;;8.55;;
8159;SDS011;27404;52.398;9.646;2022-09-13T10:16:03;9.63;;;7.90;;
8159;SDS011;27404;52.398;9.646;2022-09-13T10:18:51;13.35;;;8.35;;
8159;SDS011;27404;52.398;9.646;2022-09-13T10:23:42;10.38;;;8.35;;
8159;SDS011;27404;52.398;9.646;2022-09-13T10:26:10;11.60;;;8.43;;
8159;SDS011;27404;52.398;9.646;2022-09-13T10:28:43;10.82;;;7.97;;
8159;SDS011;27404;52.398;9.646;2022-09-13T10:31:18;13.73;;;9.35;;
8159;SDS011;27404;52.398;9.646;2022-09-13T10:33:51;12.27;;;9.47;;
8159;SDS011;27404;52.398;9.646;2022-09-13T10:36:25;13.23;;;8.70;;
8159;SDS011;27404;52.398;9.646;2022-09-13T10:41:28;11.43;;;9.47;;
8159;SDS011;27404;52.398;9.646;2022-09-13T10:44:00;13.60;;;9.88;;
8159;SDS011;27404;52.398;9.646;2022-09-13T10:46:29;14.57;;;9.75;;
8159;SDS011;27404;52.398;9.646;2022-09-13T10:48:56;12.48;;;8.85;;
8159;SDS011;27404;52.398;9.646;2022-09-13T10:53:50;13.03;;;8.53;;
8159;SDS011;27404;52.398;9.646;2022-09-13T10:56:34;11.40;;;9.10;;
8159;SDS011;27404;52.398;9.646;2022-09-13T10:59:20;14.47;;;9.57;;
8159;SDS011;27404;52.398;9.646;2022-09-13T11:01:52;12.47;;;9.20;;
8159;SDS011;27404;52.398;9.646;2022-09-13T11:09:52;13.60;;;9.47;;
8159;SDS011;27404;52.398;9.646;2022-09-13T11:12:30;11.13;;;9.07;;
8159;SDS011;27404;52.398;9.646;2022-09-13T11:21:22;14.90;;;10.40;;
8159;SDS011;27404;52.398;9.646;2022-09-13T11:26:59;14.23;;;11.23;;
8159;SDS011;27404;52.398;9.646;2022-09-13T11:41:41;13.43;;;11.47;;
8159;SDS011;27404;52.398;9.646;2022-09-13T11:46:58;13.43;;;11.23;;
8159;SDS011;27404;52.398;9.646;2022-09-13T11:55:07;15.17;;;11.67;;
8159;SDS011;27404;52.398;9.646;2022-09-13T11:57:48;14.23;;;10.90;;
8159;SDS011;27404;52.398;9.646;2022-09-13T12:00:23;15.50;;;12.17;;
8159;SDS011;27404;52.398;9.646;2022-09-13T12:05:55;14.03;;;11.37;;
8159;SDS011;27404;52.398;9.646;2022-09-13T12:08:33;17.60;;;12.00;;
8159;SDS011;27404;52.398;9.646;2022-09-13T12:11:02;20.73;;;13.20;;
8159;SDS011;27404;52.398;9.646;2022-09-13T12:13:36;17.53;;;13.10;;
8159;SDS011;27404;52.398;9.646;2022-09-13T12:16:08;15.00;;;12.80;;
8159;SDS011;27404;52.398;9.646;2022-09-13T12:21:07;14.53;;;8.73;;
8159;SDS011;27404;52.398;9.646;2022-09-13T12:23:45;7.73;;;5.93;;
8159;SDS011;27404;52.398;9.646;2022-09-13T12:26:19;7.37;;;5.93;;
8159;SDS011;27404;52.398;9.646;2022-09-13T12:28:52;7.13;;;5.33;;
8159;SDS011;27404;52.398;9.646;2022-09-13T12:31:21;7.90;;;6.20;;
8159;SDS011;27404;52.398;9.646;2022-09-13T12:33:49;9.27;;;6.10;;
8159;SDS011;27404;52.398;9.646;2022-09-13T12:36:19;8.00;;;6.00;;
8159;SDS011;27404;52.398;9.646;2022-09-13T13:03:22;4.10;;;3.20;;
8159;SDS011;27404;52.398;9.646;2022-09-13T13:06:14;3.67;;;3.20;;
8159;SDS011;27404;52.398;9.646;2022-09-13T13:12:05;5.20;;;2.33;;
8159;SDS011;27404;52.398;9.646;2022-09-13T13:20:00;1.70;;;1.50;;
8159;SDS011;27404;52.398;9.646;2022-09-13T13:25:27;2.80;;;1.20;;
8159;SDS011;27404;52.398;9.646;2022-09-13T13:28:46;3.50;;;1.60;;
8159;SDS011;27404;52.398;9.646;2022-09-13T13:31:06;4.30;;;1.37;;
8159;SDS011;27404;52.398;9.646;2022-09-13T13:33:53;2.17;;;1.50;;
8159;SDS011;27404;52.398;9.646;2022-09-13T13:36:26;2.70;;;1.40;;
8159;SDS011;27404;52.398;9.646;2022-09-13T13:38:54;4.20;;;1.27;;
8159;SDS011;27404;52.398;9.646;2022-09-13T13:44:00;2.40;;;1.40;;
8159;SDS011;27404;52.398;9.646;2022-09-13T13:46:47;2.73;;;1.47;;
8159;SDS011;27404;52.398;9.646;2022-09-13T13:54:31;2.17;;;1.30;;
8159;SDS011;27404;52.398;9.646;2022-09-13T14:17:12;2.17;;;1.40;;
8159;SDS011;27404;52.398;9.646;2022-09-13T14:20:09;2.10;;;0.90;;
8159;SDS011;27404;52.398;9.646;2022-09-13T14:22:39;1.20;;;0.80;;
8159;SDS011;27404;52.398;9.646;2022-09-13T14:27:48;1.20;;;0.80;;
8159;SDS011;27404;52.398;9.646;2022-09-13T14:30:21;3.80;;;1.30;;
8159;SDS011;27404;52.398;9.646;2022-09-13T14:32:53;2.80;;;1.03;;
8159;SDS011;27404;52.398;9.646;2022-09-13T14:35:25;1.73;;;0.70;;
8159;SDS011;27404;52.398;9.646;2022-09-13T14:37:50;3.00;;;0.90;;
8159;SDS011;27404;52.398;9.646;2022-09-13T14:40:17;1.87;;;0.80;;
8159;SDS011;27404;52.398;9.646;2022-09-13T14:42:43;2.60;;;0.90;;
8159;SDS011;27404;52.398;9.646;2022-09-13T14:45:15;5.78;;;1.10;;
8159;SDS011;27404;52.398;9.646;2022-09-13T14:50:25;2.15;;;0.90;;
8159;SDS011;27404;52.398;9.646;2022-09-13T14:53:15;2.15;;;0.80;;
8159;SDS011;27404;52.398;9.646;2022-09-13T14:55:53;3.97;;;0.80;;
8159;SDS011;27404;52.398;9.646;2022-09-13T14:58:28;6.07;;;1.00;;
8159;SDS011;27404;52.398;9.646;2022-09-13T15:01:06;2.72;;;0.90;;
8159;SDS011;27404;52.398;9.646;2022-09-13T15:03:35;3.85;;;0.80;;
8159;SDS011;27404;52.398;9.646;2022-09-13T15:06:01;1.85;;;0.90;;
8159;SDS011;27404;52.398;9.646;2022-09-13T15:10:57;2.13;;;0.77;;
8159;SDS011;27404;52.398;9.646;2022-09-13T15:13:24;5.13;;;0.98;;
8159;SDS011;27404;52.398;9.646;2022-09-13T15:15:50;1.75;;;0.77;;
8159;SDS011;27404;52.398;9.646;2022-09-13T15:23:15;2.45;;;0.90;;
8159;SDS011;27404;52.398;9.646;2022-09-13T15:31:19;4.83;;;1.53;;
8159;SDS011;27404;52.398;9.646;2022-09-13T15:33:46;6.10;;;1.10;;
8159;SDS011;27404;52.398;9.646;2022-09-13T15:38:59;3.03;;;1.10;;
8159;SDS011;27404;52.398;9.646;2022-09-13T15:41:37;5.40;;;0.93;;
8159;SDS011;27404;52.398;9.646;2022-09-13T15:44:05;4.47;;;1.10;;
8159;SDS011;27404;52.398;9.646;2022-09-13T15:46:33;2.30;;;1.13;;
8159;SDS011;27404;52.398;9.646;2022-09-13T15:49:15;6.23;;;1.17;;
8159;SDS011;27404;52.398;9.646;2022-09-13T15:51:42;2.80;;;1.10;;
8159;SDS011;27404;52.398;9.646;2022-09-13T15:54:15;4.00;;;1.00;;
8159;SDS011;27404;52.398;9.646;2022-09-13T15:56:42;2.20;;;0.80;;
8159;SDS011;27404;52.398;9.646;2022-09-13T15:59:13;11.93;;;2.00;;
8159;SDS011;27404;52.398;9.646;2022-09-13T16:01:40;2.57;;;0.70;;
8159;SDS011;27404;52.398;9.646;2022-09-13T16:04:07;3.27;;;0.77;;
8159;SDS011;27404;52.398;9.646;2022-09-13T16:06:33;2.00;;;0.70;;
8159;SDS011;27404;52.398;9.646;2022-09-13T16:08:58;2.20;;;0.80;;
8159;SDS011;27404;52.398;9.646;2022-09-13T16:11:24;6.77;;;0.80;;
8159;SDS011;27404;52.398;9.646;2022-09-13T16:13:50;4.57;;;1.00;;
8159;SDS011;27404;52.398;9.646;2022-09-13T16:16:16;3.63;;;0.80;;
8159;SDS011;27404;52.398;9.646;2022-09-13T16:18:41;0.93;;;0.53;;
8159;SDS011;27404;52.398;9.646;2022-09-13T16:21:07;3.25;;;0.88;;
8159;SDS011;27404;52.398;9.646;2022-09-13T16:23:32;1.73;;;0.57;;
8159;SDS011;27404;52.398;9.646;2022-09-13T16:25:58;2.70;;;0.68;;
8159;SDS011;27404;52.398;9.646;2022-09-13T16:28:24;1.27;;;0.73;;
8159;SDS011;27404;52.398;9.646;2022-09-13T16:30:50;2.95;;;0.98;;
8159;SDS011;27404;52.398;9.646;2022-09-13T16:33:16;5.97;;;0.95;;
8159;SDS011;27404;52.398;9.646;2022-09-13T16:35:44;2.23;;;0.70;;
8159;SDS011;27404;52.398;9.646;2022-09-13T16:38:10;3.37;;;0.60;;
8159;SDS011;27404;52.398;9.646;2022-09-13T16:40:39;3.57;;;1.10;;
8159;SDS011;27404;52.398;9.646;2022-09-13T16:43:06;5.10;;;0.90;;
8159;SDS011;27404;52.398;9.646;2022-09-13T16:45:31;1.93;;;0.90;;
8159;SDS011;27404;52.398;9.646;2022-09-13T16:47:57;4.53;;;0.93;;
8159;SDS011;27404;52.398;9.646;2022-09-13T16:50:22;2.17;;;0.77;;
8159;SDS011;27404;52.398;9.646;2022-09-13T16:52:48;1.40;;;0.80;;
8159;SDS011;27404;52.398;9.646;2022-09-13T16:55:13;5.83;;;0.97;;
8159;SDS011;27404;52.398;9.646;2022-09-13T16:57:40;3.37;;;0.90;;
8159;SDS011;27404;52.398;9.646;2022-09-13T17:00:06;3.23;;;0.93;;
8159;SDS011;27404;52.398;9.646;2022-09-13T17:02:36;5.17;;;0.70;;
8159;SDS011;27404;52.398;9.646;2022-09-13T17:05:02;1.97;;;0.70;;
8159;SDS011;27404;52.398;9.646;2022-09-13T17:07:29;2.43;;;0.80;;
8159;SDS011;27404;52.398;9.646;2022-09-13T17:09:55;2.37;;;1.10;;
8159;SDS011;27404;52.398;9.646;2022-09-13T17:12:21;3.70;;;0.70;;
8159;SDS011;27404;52.398;9.646;2022-09-13T17:14:47;2.80;;;0.90;;
8159;SDS011;27404;52.398;9.646;2022-09-13T17:17:14;1.37;;;0.73;;
8159;SDS011;27404;52.398;9.646;2022-09-13T17:19:42;5.40;;;1.30;;
8159;SDS011;27404;52.398;9.646;2022-09-13T17:22:09;2.53;;;0.90;;
8159;SDS011;27404;52.398;9.646;2022-09-13T17:24:35;2.07;;;0.80;;
8159;SDS011;27404;52.398;9.646;2022-09-13T17:27:02;4.97;;;1.63;;
8159;SDS011;27404;52.398;9.646;2022-09-13T17:29:30;4.90;;;1.00;;
8159;SDS011;27404;52.398;9.646;2022-09-13T17:31:57;3.43;;;0.97;;
8159;SDS011;27404;52.398;9.646;2022-09-13T17:34:23;3.23;;;0.90;;
8159;SDS011;27404;52.398;9.646;2022-09-13T17:36:49;2.30;;;1.00;;
8159;SDS011;27404;52.398;9.646;2022-09-13T17:39:16;2.40;;;0.93;;
8159;SDS011;27404;52.398;9.646;2022-09-13T17:41:42;4.60;;;1.20;;
8159;SDS011;27404;52.398;9.646;2022-09-13T17:44:08;2.93;;;1.10;;
8159;SDS011;27404;52.398;9.646;2022-09-13T17:46:36;3.37;;;1.27;;
8159;SDS011;27404;52.398;9.646;2022-09-13T17:49:02;3.13;;;1.00;;
8159;SDS011;27404;52.398;9.646;2022-09-13T17:51:29;2.77;;;1.20;;
8159;SDS011;27404;52.398;9.646;2022-09-13T17:53:57;5.60;;;1.53;;
8159;SDS011;27404;52.398;9.646;2022-09-13T17:56:25;3.57;;;1.10;;
8159;SDS011;27404;52.398;9.646;2022-09-13T17:58:56;4.60;;;1.07;;
8159;SDS011;27404;52.398;9.646;2022-09-13T18:01:27;3.33;;;1.10;;
8159;SDS011;27404;52.398;9.646;2022-09-13T18:03:53;2.77;;;1.27;;
8159;SDS011;27404;52.398;9.646;2022-09-13T18:06:19;3.63;;;1.60;;
8159;SDS011;27404;52.398;9.646;2022-09-13T18:08:44;3.23;;;1.10;;
8159;SDS011;27404;52.398;9.646;2022-09-13T18:11:11;3.13;;;1.23;;
8159;SDS011;27404;52.398;9.646;2022-09-13T18:13:39;2.53;;;1.27;;
8159;SDS011;27404;52.398;9.646;2022-09-13T18:16:06;3.70;;;1.10;;
8159;SDS011;27404;52.398;9.646;2022-09-13T18:18:34;2.90;;;1.10;;
8159;SDS011;27404;52.398;9.646;2022-09-13T18:21:01;3.07;;;1.03;;
8159;SDS011;27404;52.398;9.646;2022-09-13T18:23:27;2.20;;;1.10;;
8159;SDS011;27404;52.398;9.646;2022-09-13T18:26:00;3.20;;;1.40;;
8159;SDS011;27404;52.398;9.646;2022-09-13T18:28:28;5.10;;;1.77;;
8159;SDS011;27404;52.398;9.646;2022-09-13T18:30:55;2.87;;;1.50;;
8159;SDS011;27404;52.398;9.646;2022-09-13T18:33:24;4.43;;;1.80;;
8159;SDS011;27404;52.398;9.646;2022-09-13T18:36:09;4.60;;;1.60;;
8159;SDS011;27404;52.398;9.646;2022-09-13T18:38:38;2.97;;;1.47;;
8159;SDS011;27404;52.398;9.646;2022-09-13T18:41:06;7.37;;;1.93;;
8159;SDS011;27404;52.398;9.646;2022-09-13T18:43:34;3.40;;;1.60;;
8159;SDS011;27404;52.398;9.646;2022-09-13T18:46:01;3.93;;;1.43;;
8159;SDS011;27404;52.398;9.646;2022-09-13T18:48:47;3.27;;;1.50;;
8159;SDS011;27404;52.398;9.646;2022-09-13T18:51:17;5.17;;;1.57;;
8159;SDS011;27404;52.398;9.646;2022-09-13T18:53:45;5.23;;;1.60;;
8159;SDS011;27404;52.398;9.646;2022-09-13T18:56:12;3.23;;;1.60;;
8159;SDS011;27404;52.398;9.646;2022-09-13T18:58:39;2.50;;;1.40;;